Time;durP1;ratioP1;P1;durP2;ratioP2;P2;SDS_P1;SDS_P2;PMS_P1;PMS_P2;Temp;Humidity;BMP_temperature;BMP_pressure;BME280_temperature;BME280_humidity;BME280_pressure;Samples;Min_cycle;Max_cycle;Signal;HPM_P1;HPM_P2
2022/07/24 00:01:42;;;;;;;6.20;4.65;;;18.70;99.90;;;;;;4895869;29;20052;-80
2022/07/24 00:04:11;;;;;;;5.70;4.60;;;18.70;99.90;;;;;;4907741;29;20482;-81
2022/07/24 00:06:37;;;;;;;4.40;4.00;;;18.60;99.90;;;;;;4916582;29;20039;-80
2022/07/24 00:09:04;;;;;;;6.70;4.60;;;18.60;99.90;;;;;;4887282;29;20046;-78
2022/07/24 00:11:30;;;;;;;;;;;18.60;99.90;;;;;;4913660;29;20107;-78
2022/07/24 00:13:56;;;;;;;5.25;4.20;;;18.50;99.90;;;;;;4890896;29;19927;-79
2022/07/24 00:16:23;;;;;;;6.00;4.53;;;18.50;99.90;;;;;;4898557;29;20120;-83
2022/07/24 00:18:49;;;;;;;4.65;4.20;;;18.50;99.90;;;;;;4915071;29;20082;-83
2022/07/24 00:21:15;;;;;;;5.25;4.60;;;18.50;99.90;;;;;;4914706;29;20419;-80
2022/07/24 00:23:42;;;;;;;6.40;4.55;;;18.50;99.90;;;;;;4912368;29;20056;-79
2022/07/24 00:26:10;;;;;;;6.35;4.70;;;18.40;99.90;;;;;;4913869;29;20104;-80
2022/07/24 00:28:37;;;;;;;6.18;4.50;;;18.40;99.90;;;;;;4897404;29;20059;-78
2022/07/24 00:31:05;;;;;;;5.70;5.00;;;18.40;99.90;;;;;;4913062;29;20047;-79
2022/07/24 00:33:31;;;;;;;;;;;18.30;99.90;;;;;;4915958;29;20044;-81
2022/07/24 00:35:57;;;;;;;4.88;4.38;;;18.20;99.90;;;;;;4895375;29;20011;-77
2022/07/24 00:38:23;;;;;;;5.78;4.75;;;18.20;99.90;;;;;;4895170;29;20060;-79
2022/07/24 00:40:49;;;;;;;6.05;4.35;;;18.20;99.90;;;;;;4913361;29;20048;-81
2022/07/24 00:43:16;;;;;;;5.30;4.80;;;18.20;99.90;;;;;;4896081;29;20467;-79
2022/07/24 00:45:43;;;;;;;5.57;4.45;;;18.20;99.90;;;;;;4897662;29;20056;-79
2022/07/24 00:48:10;;;;;;;5.47;4.50;;;18.20;99.90;;;;;;4912520;29;20064;-78
2022/07/24 00:50:37;;;;;;;6.30;4.47;;;18.20;99.90;;;;;;4913486;29;20048;-79
2022/07/24 00:53:03;;;;;;;5.90;4.80;;;18.20;99.90;;;;;;4908129;29;20571;-80
2022/07/24 00:55:29;;;;;;;5.23;4.67;;;18.20;99.90;;;;;;4913540;29;20111;-82
2022/07/24 00:57:55;;;;;;;5.90;4.47;;;18.20;99.90;;;;;;4911562;29;20036;-81
2022/07/24 01:00:22;;;;;;;6.20;4.32;;;18.20;99.90;;;;;;4912718;29;20040;-78
2022/07/24 01:02:49;;;;;;;6.25;4.75;;;18.20;99.90;;;;;;4910093;29;20123;-80
2022/07/24 01:05:16;;;;;;;7.72;4.65;;;18.20;99.90;;;;;;4913569;29;20098;-78
2022/07/24 01:07:42;;;;;;;6.25;4.68;;;18.20;99.90;;;;;;4911289;29;20448;-79
2022/07/24 01:10:09;;;;;;;6.70;4.60;;;18.10;99.90;;;;;;4895262;29;20248;-78
2022/07/24 01:12:37;;;;;;;5.63;4.77;;;18.10;99.90;;;;;;4893592;29;20076;-79
2022/07/24 01:15:05;;;;;;;6.65;4.55;;;18.10;99.90;;;;;;4912344;29;20308;-81
2022/07/24 01:17:32;;;;;;;5.70;4.65;;;18.10;99.90;;;;;;4912543;29;20055;-77
2022/07/24 01:19:58;;;;;;;6.40;5.18;;;18.00;99.90;;;;;;4903586;29;20047;-81
2022/07/24 01:22:26;;;;;;;7.15;5.20;;;18.00;99.90;;;;;;4912403;29;20115;-83
2022/07/24 01:24:52;;;;;;;;;;;18.00;99.90;;;;;;4911569;29;20080;-80
2022/07/24 01:27:18;;;;;;;6.63;5.47;;;17.90;99.90;;;;;;4909691;29;19962;-79
2022/07/24 01:29:44;;;;;;;5.85;5.05;;;17.90;99.90;;;;;;4913155;29;20044;-79
2022/07/24 01:32:10;;;;;;;6.85;5.30;;;17.90;99.90;;;;;;4909773;29;20189;-81
2022/07/24 01:34:36;;;;;;;6.22;5.60;;;17.90;99.90;;;;;;4910590;29;20043;-83
2022/07/24 01:37:02;;;;;;;8.88;5.20;;;17.90;99.90;;;;;;4924642;29;20091;-78
2022/07/24 01:39:28;;;;;;;6.72;6.03;;;17.90;99.90;;;;;;4911283;29;20043;-80
2022/07/24 01:41:54;;;;;;;6.15;5.55;;;17.90;99.90;;;;;;4911828;29;20048;-79
2022/07/24 01:44:20;;;;;;;6.85;5.53;;;17.90;99.90;;;;;;4910803;29;20044;-83
2022/07/24 01:46:46;;;;;;;8.00;6.03;;;17.90;99.90;;;;;;4891932;29;20080;-82
2022/07/24 01:49:12;;;;;;;8.35;5.82;;;17.90;99.90;;;;;;4895643;29;20048;-80
2022/07/24 01:51:38;;;;;;;7.95;5.72;;;17.80;99.90;;;;;;4907397;29;20404;-82
2022/07/24 01:54:04;;;;;;;7.75;6.10;;;17.80;99.90;;;;;;4895073;29;20044;-79
2022/07/24 01:56:31;;;;;;;6.60;5.93;;;17.80;99.90;;;;;;4911835;29;20091;-77
2022/07/24 01:58:56;;;;;;;6.95;6.30;;;17.70;99.90;;;;;;4892602;29;20484;-78
2022/07/24 02:01:22;;;;;;;7.35;6.25;;;17.70;99.90;;;;;;4907558;29;20048;-81
2022/07/24 02:03:48;;;;;;;6.68;5.97;;;17.70;99.90;;;;;;4910149;29;20127;-81
2022/07/24 02:06:15;;;;;;;8.07;5.90;;;17.70;99.90;;;;;;4912531;29;20068;-82
2022/07/24 02:08:41;;;;;;;6.70;6.00;;;17.60;99.90;;;;;;4893811;29;20144;-79
2022/07/24 02:11:07;;;;;;;6.57;5.95;;;17.70;99.90;;;;;;4912796;29;20396;-78
2022/07/24 02:13:33;;;;;;;6.95;6.25;;;17.70;99.90;;;;;;4890247;29;20050;-81
2022/07/24 02:15:59;;;;;;;7.40;6.05;;;17.70;99.90;;;;;;4908614;29;20052;-79
2022/07/24 02:18:25;;;;;;;9.57;6.18;;;17.60;99.90;;;;;;4911493;29;20051;-79
2022/07/24 02:20:51;;;;;;;6.55;5.82;;;17.60;99.90;;;;;;4901131;29;20040;-77
2022/07/24 02:23:20;;;;;;;7.18;6.15;;;17.60;99.90;;;;;;4910713;29;20060;-79
2022/07/24 02:25:50;;;;;;;7.63;6.22;;;17.60;99.90;;;;;;4906285;29;20051;-82
2022/07/24 02:28:17;;;;;;;7.20;6.50;;;17.60;99.90;;;;;;4910565;29;20094;-79
2022/07/24 02:30:43;;;;;;;9.05;6.65;;;17.60;99.90;;;;;;4912961;29;20036;-79
2022/07/24 02:33:09;;;;;;;8.57;6.50;;;17.50;99.90;;;;;;4910289;29;20082;-83
2022/07/24 02:35:35;;;;;;;7.05;6.35;;;17.50;99.90;;;;;;4907707;29;20045;-83
2022/07/24 02:38:02;;;;;;;7.13;6.43;;;17.50;99.90;;;;;;4890528;29;20045;-77
2022/07/24 02:40:28;;;;;;;7.85;6.10;;;17.50;99.90;;;;;;4912368;29;20047;-77
2022/07/24 02:42:54;;;;;;;8.20;6.45;;;17.50;99.90;;;;;;4906388;29;20048;-79
2022/07/24 02:45:19;;;;;;;8.43;6.75;;;17.50;99.90;;;;;;4894709;29;20071;-81
2022/07/24 02:47:48;;;;;;;7.35;6.20;;;17.50;99.90;;;;;;4909830;29;20055;-79
2022/07/24 02:50:14;;;;;;;7.28;6.47;;;17.50;99.90;;;;;;4908187;29;20040;-81
2022/07/24 02:52:40;;;;;;;8.15;6.25;;;17.50;99.90;;;;;;4909400;29;20048;-79
2022/07/24 02:55:07;;;;;;;8.48;6.25;;;17.40;99.90;;;;;;4894172;29;20059;-80
2022/07/24 02:57:33;;;;;;;9.05;6.30;;;17.50;99.90;;;;;;4912058;29;20086;-78
2022/07/24 02:59:59;;;;;;;6.25;5.65;;;17.40;99.90;;;;;;4913114;29;20080;-78
2022/07/24 03:02:25;;;;;;;8.50;6.30;;;17.40;99.90;;;;;;4909983;29;20048;-78
2022/07/24 03:04:52;;;;;;;6.45;5.72;;;17.40;99.90;;;;;;4913931;29;20032;-77
2022/07/24 03:07:18;;;;;;;7.38;6.50;;;17.40;99.90;;;;;;4914209;29;20055;-78
2022/07/24 03:09:43;;;;;;;7.70;6.28;;;17.40;99.90;;;;;;4914201;29;20048;-82
2022/07/24 03:12:09;;;;;;;8.15;5.88;;;17.40;99.90;;;;;;4911814;29;20048;-78
2022/07/24 03:14:35;;;;;;;7.55;5.90;;;17.40;99.90;;;;;;4913140;29;20048;-81
2022/07/24 03:17:01;;;;;;;6.38;5.68;;;17.40;99.90;;;;;;4913665;29;20563;-82
2022/07/24 03:19:26;;;;;;;7.20;6.45;;;17.40;99.90;;;;;;4889790;29;20054;-78
2022/07/24 03:21:52;;;;;;;8.82;5.93;;;17.40;99.90;;;;;;4912174;29;20032;-78
2022/07/24 03:24:18;;;;;;;9.48;5.80;;;17.30;99.90;;;;;;4913708;29;22193;-76
2022/07/24 03:26:45;;;;;;;6.65;5.95;;;17.30;99.90;;;;;;4897594;29;20052;-80
2022/07/24 03:29:11;;;;;;;7.05;6.35;;;17.30;99.90;;;;;;4913451;29;20055;-77
2022/07/24 03:31:37;;;;;;;7.65;6.15;;;17.30;99.90;;;;;;4913356;29;20044;-81
2022/07/24 03:34:02;;;;;;;7.88;6.22;;;17.30;99.90;;;;;;4913370;29;20608;-79
2022/07/24 03:36:28;;;;;;;6.80;6.10;;;17.30;99.90;;;;;;4912549;29;20044;-79
2022/07/24 03:38:54;;;;;;;9.35;6.38;;;17.30;99.90;;;;;;4898688;29;20107;-78
2022/07/24 03:41:20;;;;;;;7.57;6.00;;;17.30;99.90;;;;;;4916099;29;20044;-78
2022/07/24 03:43:45;;;;;;;6.45;5.82;;;17.30;99.90;;;;;;4895378;29;20048;-82
2022/07/24 03:46:11;;;;;;;8.02;6.38;;;17.30;99.90;;;;;;4892102;29;20047;-77
2022/07/24 03:48:37;;;;;;;8.85;6.38;;;17.30;99.90;;;;;;4913486;29;20044;-78
2022/07/24 03:51:03;;;;;;;7.00;5.57;;;17.30;99.90;;;;;;4912564;29;20075;-81
2022/07/24 03:53:29;;;;;;;7.03;6.32;;;17.30;99.90;;;;;;4914568;29;20064;-78
2022/07/24 03:55:54;;;;;;;8.20;6.63;;;17.30;99.90;;;;;;4913224;29;20048;-82
2022/07/24 03:58:20;;;;;;;7.60;6.35;;;17.30;99.90;;;;;;4914168;29;20043;-78
2022/07/24 04:00:46;;;;;;;7.80;6.15;;;17.30;99.90;;;;;;4913096;29;20383;-78
2022/07/24 04:03:12;;;;;;;6.88;6.18;;;17.30;99.90;;;;;;4909422;29;20111;-79
2022/07/24 04:05:37;;;;;;;6.68;6.07;;;17.30;99.90;;;;;;4910311;29;20052;-77
2022/07/24 04:08:03;;;;;;;8.88;6.63;;;17.30;99.90;;;;;;4910322;29;20135;-77
2022/07/24 04:10:29;;;;;;;7.82;6.80;;;17.30;99.90;;;;;;4910900;29;20503;-82
2022/07/24 04:12:55;;;;;;;8.45;6.03;;;17.30;99.90;;;;;;4909003;29;20118;-80
2022/07/24 04:15:21;;;;;;;6.97;6.28;;;17.30;99.90;;;;;;4911514;29;20522;-78
2022/07/24 04:17:46;;;;;;;6.90;6.18;;;17.40;99.90;;;;;;4913966;29;20096;-80
2022/07/24 04:20:12;;;;;;;6.55;5.95;;;17.40;99.90;;;;;;4912672;29;20056;-78
2022/07/24 04:22:38;;;;;;;9.80;6.30;;;17.40;99.90;;;;;;4910303;29;20099;-78
2022/07/24 04:25:05;;;;;;;9.25;6.20;;;17.40;99.90;;;;;;4923565;29;20045;-77
2022/07/24 04:27:31;;;;;;;6.60;5.90;;;17.40;99.90;;;;;;4925194;29;20047;-78
2022/07/24 04:29:57;;;;;;;7.97;6.00;;;17.40;99.90;;;;;;4913060;29;20036;-79
2022/07/24 04:32:24;;;;;;;7.47;6.00;;;17.40;99.90;;;;;;4913086;29;20232;-79
2022/07/24 04:34:51;;;;;;;7.25;6.53;;;17.40;99.90;;;;;;4912720;29;20130;-82
2022/07/24 04:37:16;;;;;;;7.43;6.03;;;17.40;99.90;;;;;;4909329;29;20091;-79
2022/07/24 04:39:42;;;;;;;8.43;6.60;;;17.40;99.90;;;;;;4911836;29;20300;-81
2022/07/24 04:42:08;;;;;;;8.43;6.55;;;17.50;99.90;;;;;;4912764;29;20048;-78
2022/07/24 04:44:33;;;;;;;7.70;6.40;;;17.50;99.90;;;;;;4901481;29;20052;-81
2022/07/24 04:47:00;;;;;;;7.30;6.60;;;17.50;99.90;;;;;;4906362;29;20057;-78
2022/07/24 04:49:25;;;;;;;8.98;6.35;;;17.50;99.90;;;;;;4907662;29;20070;-78
2022/07/24 04:51:51;;;;;;;9.07;6.22;;;17.50;99.90;;;;;;4912520;29;20499;-80
2022/07/24 04:54:17;;;;;;;7.25;6.55;;;17.50;99.90;;;;;;4911557;29;20146;-79
2022/07/24 04:56:43;;;;;;;7.20;6.50;;;17.50;99.90;;;;;;4912596;29;20501;-79
2022/07/24 04:59:08;;;;;;;11.45;7.07;;;17.50;99.90;;;;;;4910403;29;20066;-83
2022/07/24 05:01:34;;;;;;;10.02;6.43;;;17.50;99.90;;;;;;4912524;29;20380;-82
2022/07/24 05:04:00;;;;;;;8.98;6.90;;;17.50;99.90;;;;;;4912933;29;20052;-81
2022/07/24 05:06:26;;;;;;;8.40;6.88;;;17.50;99.90;;;;;;4910743;29;20123;-78
2022/07/24 05:08:52;;;;;;;8.10;6.80;;;17.50;99.90;;;;;;4909487;29;20115;-77
2022/07/24 05:11:18;;;;;;;7.90;6.60;;;17.60;99.90;;;;;;4911316;29;20480;-82
2022/07/24 05:13:43;;;;;;;7.13;6.43;;;17.60;99.90;;;;;;4887560;29;20421;-78
2022/07/24 05:16:09;;;;;;;7.60;6.80;;;17.70;99.90;;;;;;4910628;29;20060;-82
2022/07/24 05:18:35;;;;;;;7.38;6.63;;;17.80;99.90;;;;;;4911258;29;20047;-84
2022/07/24 05:21:01;;;;;;;7.90;7.10;;;17.80;99.90;;;;;;4909881;29;20099;-78
2022/07/24 05:23:27;;;;;;;7.45;6.38;;;17.80;99.90;;;;;;4894275;29;20059;-79
2022/07/24 05:25:52;;;;;;;7.50;6.70;;;17.80;99.90;;;;;;4910758;29;20605;-81
2022/07/24 05:28:18;;;;;;;7.88;7.00;;;17.90;99.90;;;;;;4912370;29;20039;-80
2022/07/24 05:30:44;;;;;;;8.10;7.30;;;17.90;99.90;;;;;;4910051;29;20469;-80
2022/07/24 05:33:10;;;;;;;9.43;6.93;;;17.90;99.90;;;;;;4912152;29;20396;-78
2022/07/24 05:35:36;;;;;;;8.20;7.40;;;17.90;99.90;;;;;;4912260;29;20043;-81
2022/07/24 05:38:02;;;;;;;8.55;7.50;;;18.00;99.90;;;;;;4908487;29;20523;-80
2022/07/24 05:40:28;;;;;;;9.05;6.90;;;18.10;99.90;;;;;;4910979;29;20044;-82
2022/07/24 05:42:53;;;;;;;9.57;7.88;;;18.10;99.90;;;;;;4912085;29;20428;-78
2022/07/24 05:45:19;;;;;;;8.23;7.20;;;18.20;99.90;;;;;;4912388;29;20047;-84
2022/07/24 05:47:45;;;;;;;8.13;7.20;;;18.30;99.90;;;;;;4911373;29;20199;-81
2022/07/24 05:50:13;;;;;;;8.52;7.57;;;18.30;99.90;;;;;;4887498;29;20063;-78
2022/07/24 05:52:40;;;;;;;11.05;8.05;;;18.40;99.90;;;;;;4890193;29;20411;-77
2022/07/24 05:55:07;;;;;;;8.53;7.73;;;18.40;99.90;;;;;;4906489;29;20524;-78
2022/07/24 05:57:33;;;;;;;9.02;7.70;;;18.50;99.90;;;;;;4912034;29;20312;-78
2022/07/24 05:59:59;;;;;;;9.13;8.23;;;18.50;99.90;;;;;;4911840;29;20085;-79
2022/07/24 06:02:25;;;;;;;10.25;8.18;;;18.60;99.90;;;;;;4908063;29;20055;-77
2022/07/24 06:04:51;;;;;;;8.25;7.25;;;18.70;99.90;;;;;;4894363;29;20044;-79
2022/07/24 06:07:17;;;;;;;8.35;7.50;;;18.70;99.90;;;;;;4910208;29;20063;-77
2022/07/24 06:09:42;;;;;;;11.93;8.43;;;18.90;99.90;;;;;;4909241;29;20475;-80
2022/07/24 06:12:08;;;;;;;8.90;7.65;;;18.90;99.90;;;;;;4893134;29;20093;-81
2022/07/24 06:14:34;;;;;;;8.95;7.63;;;19.00;99.90;;;;;;4911361;29;20199;-82
2022/07/24 06:17:00;;;;;;;8.73;7.82;;;19.10;99.90;;;;;;4910343;29;20578;-77
2022/07/24 06:19:26;;;;;;;9.63;7.75;;;19.20;99.90;;;;;;4911848;29;20524;-79
2022/07/24 06:21:52;;;;;;;8.43;7.47;;;19.30;99.90;;;;;;4910900;29;20272;-78
2022/07/24 06:24:18;;;;;;;9.77;8.25;;;19.40;99.90;;;;;;4905870;29;20179;-77
2022/07/24 06:26:44;;;;;;;9.32;8.20;;;19.50;99.90;;;;;;4910980;29;20040;-77
2022/07/24 06:29:10;;;;;;;10.40;8.15;;;19.60;99.90;;;;;;4910266;29;20040;-77
2022/07/24 06:31:36;;;;;;;8.63;7.82;;;19.60;99.90;;;;;;4893700;29;20044;-77
2022/07/24 06:34:02;;;;;;;8.40;7.60;;;19.70;99.90;;;;;;4904320;29;20041;-77
2022/07/24 06:36:27;;;;;;;9.30;8.30;;;19.80;99.90;;;;;;4912599;29;20479;-78
2022/07/24 06:38:53;;;;;;;13.02;8.30;;;19.90;99.90;;;;;;4911968;29;20135;-77
2022/07/24 06:41:19;;;;;;;10.43;9.32;;;20.00;99.90;;;;;;4909360;29;20104;-79
2022/07/24 06:43:45;;;;;;;10.27;9.13;;;20.00;99.90;;;;;;4911633;29;20044;-80
2022/07/24 06:46:11;;;;;;;9.93;8.90;;;20.20;99.90;;;;;;4910795;29;20062;-77
2022/07/24 06:48:38;;;;;;;10.68;9.65;;;20.20;99.90;;;;;;4915038;29;20472;-82
2022/07/24 06:51:04;;;;;;;;;;;20.30;99.90;;;;;;4897495;29;20048;-78
2022/07/24 06:53:29;;;;;;;11.85;9.63;;;20.40;99.90;;;;;;4914399;29;19919;-77
2022/07/24 06:55:55;;;;;;;11.40;10.20;;;20.40;99.90;;;;;;4909736;29;20617;-79
2022/07/24 06:58:21;;;;;;;10.82;9.77;;;20.50;99.90;;;;;;4915349;29;20040;-80
2022/07/24 07:00:48;;;;;;;12.00;10.77;;;20.60;99.90;;;;;;4910707;29;20123;-84
2022/07/24 07:03:16;;;;;;;11.63;10.52;;;20.70;99.90;;;;;;4895889;29;20483;-77
2022/07/24 07:05:42;;;;;;;12.55;11.25;;;20.70;99.90;;;;;;4889950;29;20052;-76
2022/07/24 07:08:08;;;;;;;13.38;10.95;;;20.80;99.90;;;;;;4912911;29;20055;-76
2022/07/24 07:10:34;;;;;;;13.68;11.60;;;20.90;99.90;;;;;;4911876;29;20099;-75
2022/07/24 07:12:59;;;;;;;11.45;9.98;;;20.90;99.90;;;;;;4914558;29;20055;-73
2022/07/24 07:15:25;;;;;;;13.40;10.60;;;21.10;99.90;;;;;;4913897;29;20144;-77
2022/07/24 07:17:51;;;;;;;12.88;11.55;;;21.20;99.90;;;;;;4913956;29;20115;-75
2022/07/24 07:20:17;;;;;;;14.35;12.85;;;21.20;99.90;;;;;;4912820;29;20119;-78
2022/07/24 07:22:43;;;;;;;14.90;12.27;;;21.30;99.90;;;;;;4914985;29;20091;-76
2022/07/24 07:25:10;;;;;;;16.10;12.85;;;21.40;99.90;;;;;;4914296;29;20052;-75
2022/07/24 07:27:37;;;;;;;14.63;12.88;;;21.40;99.90;;;;;;4911845;29;20087;-73
2022/07/24 07:30:04;;;;;;;13.82;11.95;;;21.50;99.90;;;;;;4915019;29;20589;-77
2022/07/24 07:32:30;;;;;;;26.88;14.25;;;21.60;99.90;;;;;;4914498;29;20403;-76
2022/07/24 07:34:56;;;;;;;17.25;13.82;;;21.60;99.90;;;;;;4915889;29;20041;-76
2022/07/24 07:37:21;;;;;;;15.43;13.93;;;21.70;99.90;;;;;;4912991;29;20047;-75
2022/07/24 07:39:47;;;;;;;16.90;14.07;;;21.70;99.90;;;;;;4906789;29;20040;-74
2022/07/24 07:42:13;;;;;;;15.68;14.10;;;21.80;99.90;;;;;;4913666;29;20059;-76
2022/07/24 07:44:39;;;;;;;17.98;14.50;;;21.80;99.90;;;;;;4914910;29;20052;-78
2022/07/24 07:47:04;;;;;;;16.40;14.48;;;21.90;99.90;;;;;;4904544;29;20051;-80
2022/07/24 07:49:30;;;;;;;17.80;16.00;;;22.00;99.90;;;;;;4910732;29;20040;-80
2022/07/24 07:51:56;;;;;;;17.00;15.10;;;22.00;99.90;;;;;;4903753;29;20048;-76
2022/07/24 07:54:22;;;;;;;16.67;14.88;;;22.10;99.90;;;;;;4914506;29;20635;-78
2022/07/24 07:56:47;;;;;;;18.58;15.98;;;22.10;99.90;;;;;;4909760;29;20053;-80
2022/07/24 07:59:13;;;;;;;17.98;14.98;;;22.20;99.90;;;;;;4915210;29;20111;-76
2022/07/24 08:01:39;;;;;;;16.83;15.10;;;22.20;99.90;;;;;;4914093;29;20044;-76
2022/07/24 08:04:05;;;;;;;18.35;16.40;;;22.30;99.90;;;;;;4912345;29;20400;-77
2022/07/24 08:06:31;;;;;;;17.63;14.98;;;22.40;99.90;;;;;;4904787;29;20048;-77
2022/07/24 08:08:57;;;;;;;16.77;14.93;;;22.40;99.90;;;;;;4908477;29;20040;-76
2022/07/24 08:11:22;;;;;;;16.58;14.88;;;22.50;99.90;;;;;;4896953;29;20061;-78
2022/07/24 08:13:48;;;;;;;16.98;15.18;;;22.60;99.90;;;;;;4910938;29;20122;-76
2022/07/24 08:16:14;;;;;;;17.35;15.57;;;22.60;99.90;;;;;;4911415;29;20055;-78
2022/07/24 08:18:40;;;;;;;18.45;16.48;;;22.70;99.90;;;;;;4913243;29;20047;-76
2022/07/24 08:21:06;;;;;;;19.10;17.25;;;22.80;99.90;;;;;;4911250;29;20143;-77
2022/07/24 08:23:32;;;;;;;19.25;17.25;;;22.90;99.90;;;;;;4902407;29;20158;-77
2022/07/24 08:25:57;;;;;;;19.15;17.08;;;23.00;99.90;;;;;;4905048;29;20048;-80
2022/07/24 08:28:23;;;;;;;21.45;18.25;;;23.00;99.90;;;;;;4895114;29;20044;-77
2022/07/24 08:30:50;;;;;;;20.45;18.20;;;23.10;99.90;;;;;;4911887;29;20055;-80
2022/07/24 08:33:15;;;;;;;20.30;18.23;;;23.10;99.90;;;;;;4913549;29;20055;-77
2022/07/24 08:35:41;;;;;;;19.50;17.55;;;23.10;99.90;;;;;;4913425;29;20411;-76
2022/07/24 08:38:07;;;;;;;21.25;17.88;;;23.20;99.90;;;;;;4911571;29;21198;-75
2022/07/24 08:40:36;;;;;;;20.42;16.50;;;23.30;99.90;;;;;;4904749;29;20183;-79
2022/07/24 08:43:07;;;;;;;19.67;16.92;;;23.30;99.90;;;;;;4906582;29;20083;-77
2022/07/24 08:45:39;;;;;;;18.50;15.75;;;23.40;99.90;;;;;;4908413;29;20567;-78
2022/07/24 08:48:07;;;;;;;20.27;16.25;;;23.50;99.90;;;;;;4908070;29;20471;-79
2022/07/24 08:50:34;;;;;;;18.90;15.43;;;23.50;99.90;;;;;;4911680;29;20797;-77
2022/07/24 08:53:00;;;;;;;16.73;14.93;;;23.60;99.90;;;;;;4913810;29;20617;-78
2022/07/24 08:55:28;;;;;;;17.83;14.23;;;23.70;99.90;;;;;;4907062;29;20054;-78
2022/07/24 08:57:55;;;;;;;;;;;23.70;99.90;;;;;;4913127;29;20056;-77
2022/07/24 09:00:21;;;;;;;15.88;12.57;;;23.80;99.90;;;;;;4913303;29;19923;-78
2022/07/24 09:02:46;;;;;;;15.10;13.55;;;23.90;99.90;;;;;;4911771;29;20047;-78
2022/07/24 09:05:13;;;;;;;14.88;12.45;;;24.00;99.90;;;;;;4914651;29;20463;-79
2022/07/24 09:07:39;;;;;;;16.17;12.87;;;24.00;99.90;;;;;;4903506;29;20396;-81
2022/07/24 09:10:12;;;;;;;15.85;11.85;;;24.10;99.90;;;;;;4908385;29;20293;-77
2022/07/24 09:12:45;;;;;;;12.98;11.68;;;24.20;99.90;;;;;;4906713;29;20084;-75
2022/07/24 09:15:18;;;;;;;13.63;10.93;;;24.20;99.90;;;;;;4915717;29;20051;-77
2022/07/24 09:17:54;;;;;;;12.32;10.82;;;24.20;99.90;;;;;;4917459;29;20055;-79
2022/07/24 09:20:21;;;;;;;13.98;10.43;;;24.40;99.90;;;;;;4914177;29;20076;-79
2022/07/24 09:22:46;;;;;;;14.40;9.25;;;24.40;99.90;;;;;;4915846;29;20060;-81
2022/07/24 09:25:19;;;;;;;10.95;7.65;;;24.50;99.90;;;;;;4914494;29;20380;-77
2022/07/24 09:27:47;;;;;;;11.68;8.48;;;24.60;99.90;;;;;;4913996;29;20048;-76
2022/07/24 09:30:41;;;;;;;11.30;8.25;;;24.70;99.90;;;;;;4895433;29;20135;-76
2022/07/24 09:33:18;;;;;;;11.63;6.85;;;24.70;99.90;;;;;;4909871;29;20044;-77
2022/07/24 09:35:52;;;;;;;10.57;6.65;;;24.80;99.90;;;;;;4895424;29;20052;-76
2022/07/24 09:38:21;;;;;;;9.85;5.03;;;24.90;99.90;;;;;;4888003;29;20111;-76
2022/07/24 09:40:56;;;;;;;10.25;6.60;;;24.90;99.90;;;;;;4911155;29;20075;-74
2022/07/24 09:43:30;;;;;;;6.93;5.50;;;25.00;99.80;;;;;;4892430;29;20059;-74
2022/07/24 09:46:04;;;;;;;9.70;6.28;;;25.10;98.90;;;;;;4903495;29;20555;-74
2022/07/24 09:48:30;;;;;;;9.00;5.53;;;25.10;97.50;;;;;;4908052;29;20495;-78
2022/07/24 09:50:58;;;;;;;6.97;4.90;;;25.10;97.60;;;;;;4896534;29;20092;-76
2022/07/24 09:53:27;;;;;;;7.18;5.25;;;25.20;98.30;;;;;;4914276;29;20381;-76
2022/07/24 09:56:07;;;;;;;7.70;5.32;;;25.30;98.40;;;;;;4894873;29;20066;-76
2022/07/24 09:58:36;;;;;;;6.70;4.78;;;25.40;94.00;;;;;;4896609;29;20119;-77
2022/07/24 10:01:04;;;;;;;6.40;4.93;;;25.30;96.90;;;;;;4888719;29;20055;-77
2022/07/24 10:03:33;;;;;;;5.65;4.53;;;25.40;96.30;;;;;;4904063;29;20095;-78
2022/07/24 10:06:02;;;;;;;6.32;4.60;;;25.50;95.40;;;;;;4888061;29;20411;-78
2022/07/24 10:08:28;;;;;;;7.72;4.80;;;25.50;97.00;;;;;;4889662;29;20051;-82
2022/07/24 10:10:54;;;;;;;7.40;4.47;;;25.50;98.20;;;;;;4904449;29;20053;-77
2022/07/24 10:13:20;;;;;;;4.55;4.10;;;25.60;97.10;;;;;;4901195;29;20162;-76
2022/07/24 10:16:04;;;;;;;5.30;3.90;;;25.60;97.40;;;;;;4900360;29;20433;-77
2022/07/24 10:18:51;;;;;;;5.38;3.92;;;25.70;97.90;;;;;;4902508;29;20055;-78
2022/07/24 10:21:18;;;;;;;8.35;3.63;;;25.80;96.40;;;;;;4896853;29;20048;-78
2022/07/24 10:24:02;;;;;;;;;;;25.80;97.50;;;;;;4909441;29;20541;-77
2022/07/24 10:26:49;;;;;;;4.32;3.58;;;25.90;97.10;;;;;;4901861;29;19923;-77
2022/07/24 10:29:20;;;;;;;4.05;3.40;;;25.90;94.20;;;;;;4908749;29;20118;-77
2022/07/24 10:31:55;;;;;;;6.07;3.67;;;25.90;94.80;;;;;;4898115;29;20404;-78
2022/07/24 10:34:24;;;;;;;4.38;3.78;;;26.00;92.60;;;;;;4889198;29;20044;-77
2022/07/24 10:37:21;;;;;;;6.35;3.83;;;26.10;92.10;;;;;;4890225;29;20100;-77
2022/07/24 10:40:11;;;;;;;6.60;3.50;;;26.20;93.20;;;;;;4887307;29;20052;-79
2022/07/24 10:43:05;;;;;;;3.88;2.80;;;26.30;92.30;;;;;;4896178;29;20452;-79
2022/07/24 10:45:32;;;;;;;4.60;2.90;;;26.40;92.20;;;;;;4896770;29;20048;-81
2022/07/24 10:47:57;;;;;;;6.13;3.05;;;26.40;91.10;;;;;;4885038;29;20055;-80
2022/07/24 10:50:43;;;;;;;3.05;2.75;;;26.50;90.00;;;;;;4910156;29;20408;-79
2022/07/24 10:53:22;;;;;;;4.57;3.10;;;26.50;82.60;;;;;;4899680;29;20256;-80
2022/07/24 10:55:48;;;;;;;3.92;2.70;;;26.60;87.80;;;;;;4905848;29;20071;-79
2022/07/24 10:58:15;;;;;;;4.60;3.00;;;26.70;84.00;;;;;;4906411;29;20063;-81
2022/07/24 11:00:51;;;;;;;3.85;3.00;;;26.70;89.80;;;;;;4905598;29;20128;-78
2022/07/24 11:03:30;;;;;;;4.25;2.97;;;26.80;81.30;;;;;;4904114;29;20048;-79
2022/07/24 11:06:11;;;;;;;4.63;2.65;;;26.90;80.00;;;;;;4904213;29;20512;-79
2022/07/24 11:08:47;;;;;;;4.70;2.70;;;26.90;83.70;;;;;;4891268;29;20445;-78
2022/07/24 11:11:16;;;;;;;9.30;3.25;;;27.00;86.70;;;;;;4890032;29;20060;-77
2022/07/24 11:13:43;;;;;;;3.13;2.40;;;27.10;86.10;;;;;;4910681;29;20557;-78
2022/07/24 11:16:11;;;;;;;3.70;2.50;;;27.20;82.90;;;;;;4903809;29;20060;-78
2022/07/24 11:18:47;;;;;;;49.10;5.28;;;27.30;80.80;;;;;;4910708;29;20366;-80
2022/07/24 11:21:36;;;;;;;5.72;2.28;;;27.40;71.80;;;;;;4906641;29;20048;-80
2022/07/24 11:24:13;;;;;;;3.35;2.15;;;27.40;70.60;;;;;;4901902;29;20056;-74
2022/07/24 11:26:40;;;;;;;4.15;2.70;;;27.50;70.20;;;;;;4909811;29;20056;-75
2022/07/24 11:29:12;;;;;;;;;;;27.60;70.70;;;;;;4908176;29;20047;-76
2022/07/24 11:31:38;;;;;;;2.47;2.17;;;27.60;80.90;;;;;;4909877;29;19930;-75
2022/07/24 11:34:04;;;;;;;3.03;2.70;;;27.70;75.20;;;;;;4885852;29;20057;-75
2022/07/24 11:36:31;;;;;;;4.18;2.10;;;27.70;70.90;;;;;;4883487;29;20055;-75
2022/07/24 11:38:57;;;;;;;;;;;27.70;67.20;;;;;;4911851;29;20044;-75
2022/07/24 11:41:22;;;;;;;5.37;2.53;;;27.60;70.20;;;;;;4894806;29;19939;-74
2022/07/24 11:43:52;;;;;;;3.93;2.50;;;27.50;72.00;;;;;;4897730;29;20127;-74
2022/07/24 11:46:39;;;;;;;4.63;2.47;;;27.50;73.60;;;;;;4894604;29;20051;-77
2022/07/24 11:49:05;;;;;;;;;;;27.50;76.20;;;;;;4905008;29;20060;-75
2022/07/24 11:51:31;;;;;;;2.53;2.03;;;27.50;77.10;;;;;;4896648;29;19930;-76
2022/07/24 11:53:57;;;;;;;2.30;2.10;;;27.60;74.20;;;;;;4910556;29;20056;-77
2022/07/24 11:56:23;;;;;;;3.17;2.13;;;27.70;73.30;;;;;;4888591;29;20041;-78
2022/07/24 11:58:49;;;;;;;3.70;2.40;;;27.80;71.40;;;;;;4889444;29;20056;-76
2022/07/24 12:01:22;;;;;;;3.83;2.47;;;27.80;70.60;;;;;;4905301;29;20381;-76
2022/07/24 12:03:59;;;;;;;2.63;2.10;;;27.80;67.00;;;;;;4906540;29;20487;-75
2022/07/24 12:06:26;;;;;;;2.58;2.38;;;27.80;68.70;;;;;;4903842;29;20539;-74
2022/07/24 12:09:05;;;;;;;;;;;27.90;68.30;;;;;;4905111;29;20111;-78
2022/07/24 12:11:34;;;;;;;11.10;2.97;;;27.80;67.20;;;;;;4907898;29;19930;-75
2022/07/24 12:14:01;;;;;;;3.33;2.70;;;27.80;69.50;;;;;;4892119;29;20059;-74
2022/07/24 12:16:28;;;;;;;3.20;2.33;;;27.90;70.80;;;;;;4893113;29;20492;-74
2022/07/24 12:19:15;;;;;;;2.47;2.10;;;28.00;67.20;;;;;;4906856;29;20068;-74
2022/07/24 12:21:42;;;;;;;3.22;2.25;;;28.00;65.10;;;;;;4912873;29;20083;-75
2022/07/24 12:24:08;;;;;;;4.05;2.45;;;28.10;66.90;;;;;;4912366;29;20052;-74
2022/07/24 12:26:34;;;;;;;17.00;3.20;;;28.20;64.90;;;;;;4910949;29;20044;-74
2022/07/24 12:29:12;;;;;;;7.77;2.87;;;28.30;61.40;;;;;;4909209;29;20056;-74
2022/07/24 12:31:37;;;;;;;3.20;2.42;;;28.30;63.40;;;;;;4893856;29;20056;-72
2022/07/24 12:34:04;;;;;;;5.10;2.90;;;28.40;63.10;;;;;;4899321;29;20051;-74
2022/07/24 12:36:30;;;;;;;4.43;2.85;;;28.40;64.20;;;;;;4911481;29;20506;-74
2022/07/24 12:38:56;;;;;;;6.57;2.70;;;28.50;68.40;;;;;;4891450;29;20044;-74
2022/07/24 12:41:25;;;;;;;10.48;3.13;;;28.60;66.00;;;;;;4908514;29;20044;-76
2022/07/24 12:44:05;;;;;;;4.80;2.70;;;28.60;64.10;;;;;;4889628;29;20055;-75
2022/07/24 12:46:32;;;;;;;5.38;2.78;;;28.70;57.50;;;;;;4905776;29;20056;-76
2022/07/24 12:49:00;;;;;;;4.07;2.83;;;28.70;60.80;;;;;;4906728;29;20043;-76